EFMA/MHQ METAR and TAF weather

Enter ICAO airport designator
Station Type Date Time Source
EFMA METAR 2019/04/25 22:20 UTC NOAA

EFMA 252220Z AUTO 03006KT CAVOK 10/04 Q1020


Station Type Date Time Source
EFMA Decoded METAR 2019/04/25 22:20 UTC NOAA

Mariehamn / Aland Island, Finland (EFMA) 60-07N 019-54E
Apr 25, 2019 - 06:20 PM EDT / 2019.04.25 2220 UTC
Wind: from the NNE (030 degrees) at 7 MPH (6 KT):0
Visibility: greater than 7 mile(s):0
Temperature: 50 F (10 C)
Dew Point: 39 F (4 C)
Relative Humidity: 66%
Pressure (altimeter): 30.12 in. Hg (1020 hPa)
ob: EFMA 252220Z AUTO 03006KT CAVOK 10/04 Q1020
cycle: 22

Station Type Date Time Source
EFMA TAF 2014/05/01 21:18 UTC NOAA

TAF TAF EFMA 302037Z 3021/0106 08008KT CAVOK
TEMPO 3023/0101 02010KT 6000 RASN
BECMG 0101/0103 01012KT 4000 RASN BKN010 OVC025

Example: see airport list